AirNav   Air Wisconsin pilot careers
 
 534 users online  

50TX Kennedy Ranch Airport
Blanco, Texas, USA

GOING TO BLANCO?


FAA INFORMATION EFFECTIVE 19 JULY 2018

Location

FAA Identifier: 50TX
Lat/Long: 30-08-15.4500N / 098-31-31.3600W
30-08.257500N / 098-31.522667W
30.1376250 / -98.5253778
(estimated)
Elevation: 1598 ft. / 487 m (estimated)
Variation: 03E (1990)
From city: 6 miles W of BLANCO, TX
Time zone: UTC -5 (UTC -6 during Standard Time)
Zip code: 78606

Airport Operations

Airport use: Private use. Permission required prior to landing
Activation date: 08/1995
Control tower: no
ARTCC: HOUSTON CENTER
FSS: SAN ANGELO FLIGHT SERVICE STATION
Attendance: UNATNDD
Wind indicator: yes
Segmented circle: no

Nearby radio navigation aids

VOR radial/distance  VOR name  Freq  Var
STVr106/10.2STONEWALL VORTAC113.8008E
SATr346/29.8SAN ANTONIO VORTAC116.8008E
CSIr062/38.1CENTER POINT VORTAC117.5008E
RNDr336/39.2RANDOLPH VORTAC112.3005E

Airport Services

Runway Information

Runway 13/31

Dimensions: 3500 x 40 ft. / 1067 x 12 m
Surface: asphalt
RUNWAY 13  RUNWAY 31
Traffic pattern: leftleft
Obstructions: 7 ft. fence, 20 ft. from runway30 ft. trees, 250 ft. from runway

Airport Ownership and Management from official FAA records

Ownership: Privately-owned
Owner: STEVE KENNEDY
PO BOX 820124
DALLAS, TX 75382
Phone 214-368-6050
Manager: STEVE KENNEDY
PO BOX 820124
DALLAS, TX 75382
Phone 214-368-6050

Instrument Procedures

There are no published instrument procedures at 50TX.

Some nearby airports with instrument procedures:

T82 - Gillespie County Airport (21 nm W)
5C1 - Boerne Stage Field Airport (26 nm S)
3R9 - Lakeway Airpark (31 nm NE)
KERV - Kerrville Municipal Airport/Louis Schreiner Field (31 nm W)
KRYW - Lago Vista TX - Rusty Allen Airport (36 nm NE)
 
Loc | Ops | Rwys | IFR | FBO | Links
Com | Nav | Svcs | Stats | Notes


 
Area around 50TX (Kennedy Ranch Airport)
 
Road maps at: MapQuest Bing Google
 
Aerial photo
No photo
 
Sectional chart

 
Airport distance calculator
Flying to Kennedy Ranch Airport? Find the distance to fly.

From to 50TX

Sunrise and sunset
Times for 18-Jul-2018
 Local
(UTC-5)
 Zulu
(UTC)
Morning civil twilight06:1911:19
Sunrise06:4611:46
Sunset20:3501:35
Evening civil twilight21:0202:02

Current date and time
Zulu (UTC)  19-Jul-2018 04:51:27
Local (UTC-5)  18-Jul-2018 23:51:27
 
METAR
KT82 
21nm W 
190435Z AUTO 17007KT 10SM CLR 29/16 A2998 RMK AO2 T02940162
KDZB 
25nm N 
190435Z AUTO 18008KT 10SM CLR 31/17 A2993 RMK AO2 T03060167
K5C1 
26nm S 
190435Z AUTO 16007G14KT 10SM CLR 28/22 A3000 RMK AO1
KERV 
30nm W 
190435Z AUTO 14008KT 10SM CLR 29/19 A2999 RMK AO2 T02900188
KBAZ 
35nm SE 
190351Z AUTO 17014KT 10SM HZ CLR 30/24 A2993 RMK AO2 SLP123 T03000244
KRYW 
36nm NE 
190435Z AUTO 16007KT 130V190 10SM CLR 30/19 A2996 RMK AO2 T02990191
KSAT 
36nm S 
190351Z 15014KT 10SM FEW070 FEW250 31/24 A2994 RMK AO2 SLP119 T03060239
KHYI 
37nm SE 
190356Z AUTO 17009KT 10SM CLR 30/24 A2994 RMK AO2 SLP128 T03000244 $
KBMQ 
39nm NE 
190353Z AUTO 16005KT 10SM CLR 31/16 A2996 RMK AO2 SLP124 T03110161 $
KAQO 
39nm N 
190430Z AUTO 15005KT 10SM CLR 32/16 A2996 RMK AO2
TAF
KSAT 
36nm S 
181726Z 1818/1924 16010KT P6SM SCT250
KRND 
40nm S 
190030Z 1900/1923 17009KT 9999 FEW100 QNH2988INS BECMG 1908/1909 18006KT 9999 BKN010 QNH2993INS BECMG 1914/1915 19009KT 9999 SCT100 QNH2986INS TX38/1921Z TN24/1912Z LAST NO AMDS AFT 1900 NEXT 1909
KAUS 
44nm E 
181726Z 1818/1924 18010KT P6SM SCT250
NOTAMs
Click for the latest NOTAMs
NOTAMs are issued by the DoD/FAA and will open in a separate window not controlled by AirNav.

 

 
 

Would you like to see your business listed on this page?

 If your business provides an interesting product or service to pilots, flight crews, aircraft, or users of the Kennedy Ranch Airport, you should consider listing it here.  To start the listing process, click on the button below
 
Add a business
 

Other Pages about Kennedy Ranch Airport

Update a link
 
Copyright © AirNav, LLC. All rights reserved. Privacy Policy  Contact